sensor_id;sensor_type;location;lat;lon;timestamp;P1;durP1;ratioP1;P2;durP2;ratioP2
44000;SDS011;29660;42.892;24.710;2023-04-24T00:00:03;19.63;;;13.73;;
44000;SDS011;29660;42.892;24.710;2023-04-24T00:05:27;13.40;;;9.32;;
44000;SDS011;29660;42.892;24.710;2023-04-24T00:10:49;14.85;;;11.13;;
44000;SDS011;29660;42.892;24.710;2023-04-24T00:16:11;19.40;;;13.05;;
44000;SDS011;29660;42.892;24.710;2023-04-24T00:21:33;14.43;;;9.75;;
44000;SDS011;29660;42.892;24.710;2023-04-24T00:26:56;14.75;;;8.30;;
44000;SDS011;29660;42.892;24.710;2023-04-24T00:32:18;13.45;;;7.78;;
44000;SDS011;29660;42.892;24.710;2023-04-24T00:37:40;19.42;;;12.60;;
44000;SDS011;29660;42.892;24.710;2023-04-24T00:43:02;19.60;;;12.88;;
44000;SDS011;29660;42.892;24.710;2023-04-24T00:48:25;14.55;;;9.95;;
44000;SDS011;29660;42.892;24.710;2023-04-24T00:53:48;14.13;;;11.13;;
44000;SDS011;29660;42.892;24.710;2023-04-24T00:59:13;15.10;;;11.40;;
44000;SDS011;29660;42.892;24.710;2023-04-24T01:04:38;17.30;;;13.60;;
44000;SDS011;29660;42.892;24.710;2023-04-24T01:10:02;20.35;;;14.55;;
44000;SDS011;29660;42.892;24.710;2023-04-24T01:15:24;11.15;;;8.70;;
44000;SDS011;29660;42.892;24.710;2023-04-24T01:20:46;10.75;;;8.43;;
44000;SDS011;29660;42.892;24.710;2023-04-24T01:26:12;13.80;;;8.52;;
44000;SDS011;29660;42.892;24.710;2023-04-24T01:31:35;12.98;;;9.00;;
44000;SDS011;29660;42.892;24.710;2023-04-24T01:36:57;23.17;;;14.75;;
44000;SDS011;29660;42.892;24.710;2023-04-24T01:42:20;18.25;;;14.23;;
44000;SDS011;29660;42.892;24.710;2023-04-24T01:47:42;17.52;;;11.20;;
44000;SDS011;29660;42.892;24.710;2023-04-24T01:53:05;14.40;;;10.27;;
44000;SDS011;29660;42.892;24.710;2023-04-24T01:58:27;35.53;;;21.08;;
44000;SDS011;29660;42.892;24.710;2023-04-24T02:03:50;23.52;;;15.90;;
44000;SDS011;29660;42.892;24.710;2023-04-24T02:09:12;22.20;;;15.18;;
44000;SDS011;29660;42.892;24.710;2023-04-24T02:14:34;25.20;;;16.42;;
44000;SDS011;29660;42.892;24.710;2023-04-24T02:19:57;26.35;;;16.85;;
44000;SDS011;29660;42.892;24.710;2023-04-24T02:25:19;24.42;;;16.50;;
44000;SDS011;29660;42.892;24.710;2023-04-24T02:30:42;17.80;;;13.95;;
44000;SDS011;29660;42.892;24.710;2023-04-24T02:36:04;19.77;;;12.27;;
44000;SDS011;29660;42.892;24.710;2023-04-24T02:41:26;18.15;;;12.30;;
44000;SDS011;29660;42.892;24.710;2023-04-24T02:46:53;18.30;;;11.85;;
44000;SDS011;29660;42.892;24.710;2023-04-24T02:52:15;11.63;;;8.07;;
44000;SDS011;29660;42.892;24.710;2023-04-24T02:57:38;13.23;;;9.38;;
44000;SDS011;29660;42.892;24.710;2023-04-24T03:03:00;20.30;;;11.80;;
44000;SDS011;29660;42.892;24.710;2023-04-24T03:08:23;17.58;;;13.55;;
44000;SDS011;29660;42.892;24.710;2023-04-24T03:13:45;17.70;;;11.82;;
44000;SDS011;29660;42.892;24.710;2023-04-24T03:19:07;14.77;;;10.18;;
44000;SDS011;29660;42.892;24.710;2023-04-24T03:24:37;19.10;;;15.10;;
44000;SDS011;29660;42.892;24.710;2023-04-24T03:30:01;29.05;;;21.13;;
44000;SDS011;29660;42.892;24.710;2023-04-24T03:35:34;44.17;;;30.77;;
44000;SDS011;29660;42.892;24.710;2023-04-24T03:40:59;31.13;;;17.75;;
44000;SDS011;29660;42.892;24.710;2023-04-24T03:46:47;26.85;;;20.15;;
44000;SDS011;29660;42.892;24.710;2023-04-24T03:52:11;39.38;;;26.27;;
44000;SDS011;29660;42.892;24.710;2023-04-24T03:57:33;34.40;;;21.95;;
44000;SDS011;29660;42.892;24.710;2023-04-24T04:03:08;33.15;;;21.88;;
44000;SDS011;29660;42.892;24.710;2023-04-24T04:08:30;37.53;;;24.52;;
44000;SDS011;29660;42.892;24.710;2023-04-24T04:13:52;47.10;;;33.60;;
44000;SDS011;29660;42.892;24.710;2023-04-24T04:19:16;34.63;;;23.65;;
44000;SDS011;29660;42.892;24.710;2023-04-24T04:24:38;31.65;;;21.48;;
44000;SDS011;29660;42.892;24.710;2023-04-24T04:30:03;48.10;;;32.85;;
44000;SDS011;29660;42.892;24.710;2023-04-24T04:35:38;33.60;;;19.50;;
44000;SDS011;29660;42.892;24.710;2023-04-24T04:41:00;32.30;;;20.48;;
44000;SDS011;29660;42.892;24.710;2023-04-24T04:46:26;54.05;;;30.38;;
44000;SDS011;29660;42.892;24.710;2023-04-24T04:52:03;48.08;;;28.42;;
44000;SDS011;29660;42.892;24.710;2023-04-24T04:57:25;37.45;;;23.25;;
44000;SDS011;29660;42.892;24.710;2023-04-24T05:02:48;52.58;;;33.00;;
44000;SDS011;29660;42.892;24.710;2023-04-24T05:08:10;56.63;;;37.63;;
44000;SDS011;29660;42.892;24.710;2023-04-24T05:13:47;58.63;;;43.00;;
44000;SDS011;29660;42.892;24.710;2023-04-24T05:19:13;49.05;;;34.65;;
44000;SDS011;29660;42.892;24.710;2023-04-24T05:24:36;43.97;;;31.38;;
44000;SDS011;29660;42.892;24.710;2023-04-24T05:30:16;36.33;;;26.20;;
44000;SDS011;29660;42.892;24.710;2023-04-24T05:35:39;54.50;;;37.95;;
44000;SDS011;29660;42.892;24.710;2023-04-24T05:46:30;54.15;;;34.65;;
44000;SDS011;29660;42.892;24.710;2023-04-24T05:51:52;50.90;;;36.63;;
44000;SDS011;29660;42.892;24.710;2023-04-24T05:57:14;55.30;;;38.05;;
44000;SDS011;29660;42.892;24.710;2023-04-24T06:02:48;53.75;;;37.08;;
44000;SDS011;29660;42.892;24.710;2023-04-24T06:08:11;77.28;;;47.03;;
44000;SDS011;29660;42.892;24.710;2023-04-24T06:13:34;78.93;;;52.58;;
44000;SDS011;29660;42.892;24.710;2023-04-24T06:19:15;58.58;;;41.80;;
44000;SDS011;29660;42.892;24.710;2023-04-24T06:24:39;47.80;;;33.05;;
44000;SDS011;29660;42.892;24.710;2023-04-24T06:30:02;50.67;;;38.03;;
44000;SDS011;29660;42.892;24.710;2023-04-24T06:35:24;42.10;;;29.27;;
44000;SDS011;29660;42.892;24.710;2023-04-24T06:40:46;32.03;;;24.02;;
44000;SDS011;29660;42.892;24.710;2023-04-24T06:46:08;16.85;;;11.70;;
44000;SDS011;29660;42.892;24.710;2023-04-24T06:51:31;11.70;;;7.90;;
44000;SDS011;29660;42.892;24.710;2023-04-24T06:56:54;14.63;;;7.85;;
44000;SDS011;29660;42.892;24.710;2023-04-24T07:02:18;12.50;;;8.30;;
44000;SDS011;29660;42.892;24.710;2023-04-24T07:07:41;12.63;;;6.97;;
44000;SDS011;29660;42.892;24.710;2023-04-24T07:13:04;10.77;;;6.60;;
44000;SDS011;29660;42.892;24.710;2023-04-24T07:18:28;13.75;;;6.53;;
44000;SDS011;29660;42.892;24.710;2023-04-24T07:23:50;13.05;;;6.32;;
44000;SDS011;29660;42.892;24.710;2023-04-24T07:29:12;9.02;;;5.65;;
44000;SDS011;29660;42.892;24.710;2023-04-24T07:34:35;8.63;;;5.88;;
44000;SDS011;29660;42.892;24.710;2023-04-24T07:39:57;8.13;;;5.32;;
44000;SDS011;29660;42.892;24.710;2023-04-24T07:45:19;9.68;;;6.82;;
44000;SDS011;29660;42.892;24.710;2023-04-24T07:50:42;17.83;;;9.68;;
44000;SDS011;29660;42.892;24.710;2023-04-24T07:56:04;18.02;;;12.60;;
44000;SDS011;29660;42.892;24.710;2023-04-24T08:01:26;12.60;;;10.32;;
44000;SDS011;29660;42.892;24.710;2023-04-24T08:06:48;18.65;;;12.48;;
44000;SDS011;29660;42.892;24.710;2023-04-24T08:12:10;11.10;;;7.32;;
44000;SDS011;29660;42.892;24.710;2023-04-24T08:17:33;10.32;;;7.40;;
44000;SDS011;29660;42.892;24.710;2023-04-24T08:22:56;40.65;;;29.00;;
44000;SDS011;29660;42.892;24.710;2023-04-24T08:28:19;34.30;;;26.20;;
44000;SDS011;29660;42.892;24.710;2023-04-24T08:33:41;16.52;;;8.30;;
44000;SDS011;29660;42.892;24.710;2023-04-24T08:39:06;9.80;;;7.35;;
44000;SDS011;29660;42.892;24.710;2023-04-24T08:44:28;11.13;;;5.95;;
44000;SDS011;29660;42.892;24.710;2023-04-24T08:49:51;24.50;;;18.45;;
44000;SDS011;29660;42.892;24.710;2023-04-24T08:55:13;20.83;;;12.85;;
44000;SDS011;29660;42.892;24.710;2023-04-24T09:00:38;16.20;;;10.60;;
44000;SDS011;29660;42.892;24.710;2023-04-24T09:06:01;16.27;;;11.95;;
44000;SDS011;29660;42.892;24.710;2023-04-24T09:11:24;21.20;;;14.27;;
44000;SDS011;29660;42.892;24.710;2023-04-24T09:16:47;13.18;;;10.20;;
44000;SDS011;29660;42.892;24.710;2023-04-24T09:22:09;13.25;;;7.72;;
44000;SDS011;29660;42.892;24.710;2023-04-24T09:27:33;17.95;;;11.35;;
44000;SDS011;29660;42.892;24.710;2023-04-24T09:33:28;18.50;;;13.48;;
44000;SDS011;29660;42.892;24.710;2023-04-24T09:38:43;15.27;;;9.43;;
44000;SDS011;29660;42.892;24.710;2023-04-24T09:44:48;12.65;;;8.20;;
44000;SDS011;29660;42.892;24.710;2023-04-24T09:49:51;71.00;;;53.63;;
44000;SDS011;29660;42.892;24.710;2023-04-24T09:55:20;59.38;;;45.40;;
44000;SDS011;29660;42.892;24.710;2023-04-24T10:00:43;25.65;;;19.15;;
44000;SDS011;29660;42.892;24.710;2023-04-24T10:06:07;16.30;;;11.05;;
44000;SDS011;29660;42.892;24.710;2023-04-24T10:11:33;14.10;;;10.73;;
44000;SDS011;29660;42.892;24.710;2023-04-24T10:16:56;14.27;;;10.50;;
44000;SDS011;29660;42.892;24.710;2023-04-24T10:22:19;20.55;;;11.48;;
44000;SDS011;29660;42.892;24.710;2023-04-24T10:27:43;15.95;;;9.82;;
44000;SDS011;29660;42.892;24.710;2023-04-24T10:33:07;14.95;;;9.20;;
44000;SDS011;29660;42.892;24.710;2023-04-24T10:38:30;7.85;;;5.07;;
44000;SDS011;29660;42.892;24.710;2023-04-24T10:44:12;8.10;;;5.55;;
44000;SDS011;29660;42.892;24.710;2023-04-24T10:49:35;7.00;;;4.38;;
44000;SDS011;29660;42.892;24.710;2023-04-24T10:54:59;7.25;;;3.92;;
44000;SDS011;29660;42.892;24.710;2023-04-24T11:00:24;10.23;;;3.95;;
44000;SDS011;29660;42.892;24.710;2023-04-24T11:05:56;4.65;;;3.10;;
44000;SDS011;29660;42.892;24.710;2023-04-24T11:11:23;4.38;;;3.40;;
44000;SDS011;29660;42.892;24.710;2023-04-24T11:16:54;6.70;;;3.87;;
44000;SDS011;29660;42.892;24.710;2023-04-24T11:22:19;5.63;;;3.33;;
44000;SDS011;29660;42.892;24.710;2023-04-24T11:27:43;6.50;;;3.80;;
44000;SDS011;29660;42.892;24.710;2023-04-24T11:33:10;7.10;;;3.72;;
44000;SDS011;29660;42.892;24.710;2023-04-24T11:38:32;6.03;;;3.42;;
44000;SDS011;29660;42.892;24.710;2023-04-24T11:43:56;3.95;;;2.75;;
44000;SDS011;29660;42.892;24.710;2023-04-24T11:49:19;6.72;;;3.30;;
44000;SDS011;29660;42.892;24.710;2023-04-24T11:54:46;9.40;;;3.83;;
44000;SDS011;29660;42.892;24.710;2023-04-24T12:05:39;4.30;;;3.10;;
44000;SDS011;29660;42.892;24.710;2023-04-24T12:11:02;6.82;;;3.38;;
44000;SDS011;29660;42.892;24.710;2023-04-24T12:16:26;5.80;;;3.40;;
44000;SDS011;29660;42.892;24.710;2023-04-24T12:21:59;7.03;;;3.65;;
44000;SDS011;29660;42.892;24.710;2023-04-24T12:27:22;6.57;;;4.05;;
44000;SDS011;29660;42.892;24.710;2023-04-24T12:32:47;9.13;;;5.82;;
44000;SDS011;29660;42.892;24.710;2023-04-24T12:38:12;6.28;;;4.60;;
44000;SDS011;29660;42.892;24.710;2023-04-24T12:43:36;8.13;;;3.50;;
44000;SDS011;29660;42.892;24.710;2023-04-24T12:48:58;6.32;;;3.67;;
44000;SDS011;29660;42.892;24.710;2023-04-24T12:54:21;5.50;;;3.90;;
44000;SDS011;29660;42.892;24.710;2023-04-24T12:59:44;7.70;;;4.40;;
44000;SDS011;29660;42.892;24.710;2023-04-24T13:05:06;5.80;;;4.10;;
44000;SDS011;29660;42.892;24.710;2023-04-24T13:10:29;6.05;;;3.33;;
44000;SDS011;29660;42.892;24.710;2023-04-24T13:15:51;8.82;;;3.58;;
44000;SDS011;29660;42.892;24.710;2023-04-24T13:21:13;7.03;;;3.60;;
44000;SDS011;29660;42.892;24.710;2023-04-24T13:26:36;6.55;;;3.67;;
44000;SDS011;29660;42.892;24.710;2023-04-24T13:31:58;7.07;;;3.53;;
44000;SDS011;29660;42.892;24.710;2023-04-24T13:37:20;7.10;;;3.63;;
44000;SDS011;29660;42.892;24.710;2023-04-24T13:42:42;7.95;;;3.90;;
44000;SDS011;29660;42.892;24.710;2023-04-24T13:48:04;4.20;;;3.08;;
44000;SDS011;29660;42.892;24.710;2023-04-24T13:53:45;6.90;;;3.90;;
44000;SDS011;29660;42.892;24.710;2023-04-24T13:59:08;10.75;;;4.35;;
44000;SDS011;29660;42.892;24.710;2023-04-24T14:04:30;7.97;;;4.00;;
44000;SDS011;29660;42.892;24.710;2023-04-24T14:09:52;6.22;;;5.00;;
44000;SDS011;29660;42.892;24.710;2023-04-24T14:15:15;18.25;;;5.28;;
44000;SDS011;29660;42.892;24.710;2023-04-24T14:20:37;8.07;;;6.03;;
44000;SDS011;29660;42.892;24.710;2023-04-24T14:25:59;8.35;;;5.20;;
44000;SDS011;29660;42.892;24.710;2023-04-24T14:31:22;9.77;;;6.28;;
44000;SDS011;29660;42.892;24.710;2023-04-24T14:36:44;12.32;;;7.25;;
44000;SDS011;29660;42.892;24.710;2023-04-24T14:42:06;7.38;;;5.60;;
44000;SDS011;29660;42.892;24.710;2023-04-24T14:47:28;9.13;;;7.10;;
44000;SDS011;29660;42.892;24.710;2023-04-24T14:52:51;5.00;;;4.20;;
44000;SDS011;29660;42.892;24.710;2023-04-24T14:58:13;6.60;;;5.63;;
44000;SDS011;29660;42.892;24.710;2023-04-24T15:03:35;7.90;;;6.60;;
44000;SDS011;29660;42.892;24.710;2023-04-24T15:08:58;7.95;;;6.28;;
44000;SDS011;29660;42.892;24.710;2023-04-24T15:14:20;8.63;;;7.30;;
44000;SDS011;29660;42.892;24.710;2023-04-24T15:19:42;62.75;;;46.88;;
44000;SDS011;29660;42.892;24.710;2023-04-24T15:25:05;28.48;;;21.23;;
44000;SDS011;29660;42.892;24.710;2023-04-24T15:30:27;7.75;;;6.38;;
44000;SDS011;29660;42.892;24.710;2023-04-24T15:35:50;14.32;;;11.65;;
44000;SDS011;29660;42.892;24.710;2023-04-24T15:41:13;13.18;;;11.65;;
44000;SDS011;29660;42.892;24.710;2023-04-24T15:46:35;26.67;;;22.17;;
44000;SDS011;29660;42.892;24.710;2023-04-24T15:51:58;16.38;;;13.27;;
44000;SDS011;29660;42.892;24.710;2023-04-24T15:57:20;20.08;;;16.40;;
44000;SDS011;29660;42.892;24.710;2023-04-24T16:02:42;23.40;;;19.27;;
44000;SDS011;29660;42.892;24.710;2023-04-24T16:08:05;20.05;;;17.02;;
44000;SDS011;29660;42.892;24.710;2023-04-24T16:13:28;24.45;;;21.20;;
44000;SDS011;29660;42.892;24.710;2023-04-24T16:18:50;32.83;;;22.33;;
44000;SDS011;29660;42.892;24.710;2023-04-24T16:24:15;36.95;;;27.85;;
44000;SDS011;29660;42.892;24.710;2023-04-24T16:29:37;22.33;;;19.98;;
44000;SDS011;29660;42.892;24.710;2023-04-24T16:35:00;24.83;;;21.65;;
44000;SDS011;29660;42.892;24.710;2023-04-24T16:40:23;36.83;;;29.60;;
44000;SDS011;29660;42.892;24.710;2023-04-24T16:45:45;17.40;;;14.93;;
44000;SDS011;29660;42.892;24.710;2023-04-24T16:51:08;27.52;;;22.83;;
44000;SDS011;29660;42.892;24.710;2023-04-24T16:56:31;38.72;;;34.63;;
44000;SDS011;29660;42.892;24.710;2023-04-24T17:01:54;49.65;;;40.17;;
44000;SDS011;29660;42.892;24.710;2023-04-24T17:07:16;42.55;;;34.25;;
44000;SDS011;29660;42.892;24.710;2023-04-24T17:12:39;42.08;;;36.70;;
44000;SDS011;29660;42.892;24.710;2023-04-24T17:18:02;42.15;;;37.60;;
44000;SDS011;29660;42.892;24.710;2023-04-24T17:23:26;24.27;;;21.70;;
44000;SDS011;29660;42.892;24.710;2023-04-24T17:28:49;23.15;;;19.75;;
44000;SDS011;29660;42.892;24.710;2023-04-24T17:34:34;49.25;;;44.35;;
44000;SDS011;29660;42.892;24.710;2023-04-24T17:39:56;39.88;;;35.70;;
44000;SDS011;29660;42.892;24.710;2023-04-24T17:45:19;49.47;;;44.38;;
44000;SDS011;29660;42.892;24.710;2023-04-24T17:50:41;62.53;;;55.67;;
44000;SDS011;29660;42.892;24.710;2023-04-24T17:56:04;38.17;;;34.28;;
44000;SDS011;29660;42.892;24.710;2023-04-24T18:01:26;33.53;;;29.98;;
44000;SDS011;29660;42.892;24.710;2023-04-24T18:06:49;34.17;;;30.77;;
44000;SDS011;29660;42.892;24.710;2023-04-24T18:12:12;25.75;;;22.58;;
44000;SDS011;29660;42.892;24.710;2023-04-24T18:17:34;32.58;;;28.08;;
44000;SDS011;29660;42.892;24.710;2023-04-24T18:22:58;41.97;;;35.97;;
44000;SDS011;29660;42.892;24.710;2023-04-24T18:28:22;35.80;;;26.58;;
44000;SDS011;29660;42.892;24.710;2023-04-24T18:33:44;27.42;;;24.33;;
44000;SDS011;29660;42.892;24.710;2023-04-24T18:39:06;29.65;;;26.40;;
44000;SDS011;29660;42.892;24.710;2023-04-24T18:44:47;32.78;;;27.60;;
44000;SDS011;29660;42.892;24.710;2023-04-24T18:50:10;29.02;;;26.08;;
44000;SDS011;29660;42.892;24.710;2023-04-24T18:55:33;37.60;;;31.90;;
44000;SDS011;29660;42.892;24.710;2023-04-24T19:00:56;27.65;;;24.92;;
44000;SDS011;29660;42.892;24.710;2023-04-24T19:06:18;37.25;;;33.25;;
44000;SDS011;29660;42.892;24.710;2023-04-24T19:11:40;37.00;;;31.05;;
44000;SDS011;29660;42.892;24.710;2023-04-24T19:17:22;47.25;;;35.58;;
44000;SDS011;29660;42.892;24.710;2023-04-24T19:22:46;40.00;;;32.08;;
44000;SDS011;29660;42.892;24.710;2023-04-24T19:28:08;28.15;;;24.85;;
44000;SDS011;29660;42.892;24.710;2023-04-24T19:33:30;33.33;;;27.38;;
44000;SDS011;29660;42.892;24.710;2023-04-24T19:38:52;29.85;;;23.65;;
44000;SDS011;29660;42.892;24.710;2023-04-24T19:44:15;31.40;;;25.80;;
44000;SDS011;29660;42.892;24.710;2023-04-24T19:49:38;22.15;;;19.80;;
44000;SDS011;29660;42.892;24.710;2023-04-24T19:55:00;35.13;;;28.73;;
44000;SDS011;29660;42.892;24.710;2023-04-24T20:00:37;36.95;;;32.90;;
44000;SDS011;29660;42.892;24.710;2023-04-24T20:06:02;23.90;;;19.40;;
44000;SDS011;29660;42.892;24.710;2023-04-24T20:11:24;25.13;;;22.42;;
44000;SDS011;29660;42.892;24.710;2023-04-24T20:16:46;30.02;;;25.13;;
44000;SDS011;29660;42.892;24.710;2023-04-24T20:22:10;31.27;;;27.85;;
44000;SDS011;29660;42.892;24.710;2023-04-24T20:27:34;28.38;;;25.40;;
44000;SDS011;29660;42.892;24.710;2023-04-24T20:32:57;23.55;;;20.20;;
44000;SDS011;29660;42.892;24.710;2023-04-24T20:38:19;23.20;;;20.73;;
44000;SDS011;29660;42.892;24.710;2023-04-24T20:43:43;28.60;;;25.60;;
44000;SDS011;29660;42.892;24.710;2023-04-24T20:49:05;44.35;;;36.08;;
44000;SDS011;29660;42.892;24.710;2023-04-24T20:54:28;38.05;;;32.78;;
44000;SDS011;29660;42.892;24.710;2023-04-24T20:59:51;61.13;;;43.10;;
44000;SDS011;29660;42.892;24.710;2023-04-24T21:05:13;40.78;;;33.58;;
44000;SDS011;29660;42.892;24.710;2023-04-24T21:10:35;26.15;;;22.58;;
44000;SDS011;29660;42.892;24.710;2023-04-24T21:15:57;34.78;;;26.90;;
44000;SDS011;29660;42.892;24.710;2023-04-24T21:21:19;31.42;;;25.88;;
44000;SDS011;29660;42.892;24.710;2023-04-24T21:26:42;31.50;;;28.33;;
44000;SDS011;29660;42.892;24.710;2023-04-24T21:32:04;29.95;;;24.23;;
44000;SDS011;29660;42.892;24.710;2023-04-24T21:37:26;22.63;;;20.23;;
44000;SDS011;29660;42.892;24.710;2023-04-24T21:42:49;23.23;;;20.92;;
44000;SDS011;29660;42.892;24.710;2023-04-24T21:48:12;24.42;;;21.73;;
44000;SDS011;29660;42.892;24.710;2023-04-24T21:53:34;27.33;;;22.48;;
44000;SDS011;29660;42.892;24.710;2023-04-24T21:58:56;30.27;;;27.20;;
44000;SDS011;29660;42.892;24.710;2023-04-24T22:04:19;29.23;;;26.10;;
44000;SDS011;29660;42.892;24.710;2023-04-24T22:09:41;21.35;;;18.80;;
44000;SDS011;29660;42.892;24.710;2023-04-24T22:15:04;38.65;;;29.33;;
44000;SDS011;29660;42.892;24.710;2023-04-24T22:20:26;23.17;;;20.77;;
44000;SDS011;29660;42.892;24.710;2023-04-24T22:25:48;27.67;;;20.15;;
44000;SDS011;29660;42.892;24.710;2023-04-24T22:31:11;19.50;;;17.27;;
44000;SDS011;29660;42.892;24.710;2023-04-24T22:36:33;21.00;;;18.42;;
44000;SDS011;29660;42.892;24.710;2023-04-24T22:41:55;23.50;;;20.38;;
44000;SDS011;29660;42.892;24.710;2023-04-24T22:47:18;28.35;;;19.10;;
44000;SDS011;29660;42.892;24.710;2023-04-24T22:52:40;11.80;;;9.85;;
44000;SDS011;29660;42.892;24.710;2023-04-24T22:58:05;12.85;;;10.98;;
44000;SDS011;29660;42.892;24.710;2023-04-24T23:03:27;15.35;;;8.70;;
44000;SDS011;29660;42.892;24.710;2023-04-24T23:08:49;7.35;;;5.63;;
44000;SDS011;29660;42.892;24.710;2023-04-24T23:14:12;4.60;;;3.65;;
44000;SDS011;29660;42.892;24.710;2023-04-24T23:19:34;10.20;;;5.82;;
44000;SDS011;29660;42.892;24.710;2023-04-24T23:24:57;10.07;;;6.35;;
44000;SDS011;29660;42.892;24.710;2023-04-24T23:30:19;19.15;;;14.85;;
44000;SDS011;29660;42.892;24.710;2023-04-24T23:35:41;9.52;;;7.05;;
44000;SDS011;29660;42.892;24.710;2023-04-24T23:41:03;10.73;;;6.82;;
44000;SDS011;29660;42.892;24.710;2023-04-24T23:46:25;4.70;;;4.20;;
44000;SDS011;29660;42.892;24.710;2023-04-24T23:51:48;5.18;;;4.30;;
44000;SDS011;29660;42.892;24.710;2023-04-24T23:57:10;8.38;;;5.40;;
